TimeCST,TemperatureF,Dew PointF,Humidity,Sea Level PressureIn,VisibilityMPH,Wind Direction,Wind SpeedMPH,Gust SpeedMPH,PrecipitationIn,Events,Conditions,WindDirDegrees,DateUTC
12:15 AM,53.6,50.0,88,30.15,9.0,Calm,Calm,-,N/A,,Overcast,0,2012-12-01 06:15:00
12:35 AM,53.6,50.0,88,30.15,10.0,Calm,Calm,-,N/A,,Overcast,0,2012-12-01 06:35:00
12:55 AM,53.6,50.0,88,30.15,10.0,Calm,Calm,-,N/A,,Overcast,0,2012-12-01 06:55:00
1:15 AM,53.6,50.0,88,30.14,9.0,Calm,Calm,-,N/A,,Overcast,0,2012-12-01 07:15:00
1:35 AM,53.6,50.0,88,30.15,10.0,Calm,Calm,-,N/A,,Overcast,0,2012-12-01 07:35:00
1:55 AM,51.8,50.0,94,30.15,9.0,Calm,Calm,-,N/A,,Overcast,0,2012-12-01 07:55:00
2:15 AM,53.6,50.0,88,30.15,10.0,Calm,Calm,-,N/A,,Overcast,0,2012-12-01 08:15:00
2:35 AM,51.8,50.0,94,30.15,8.0,Calm,Calm,-,N/A,,Mostly Cloudy,0,2012-12-01 08:35:00
2:55 AM,51.8,48.2,88,30.15,8.0,Calm,Calm,-,N/A,,Mostly Cloudy,0,2012-12-01 08:55:00
3:15 AM,51.8,48.2,88,30.15,8.0,Calm,Calm,-,N/A,,Overcast,0,2012-12-01 09:15:00
3:35 AM,51.8,50.0,94,30.14,9.0,Calm,Calm,-,N/A,,Overcast,0,2012-12-01 09:35:00
3:55 AM,51.8,48.2,88,30.14,10.0,Calm,Calm,-,N/A,,Overcast,0,2012-12-01 09:55:00
4:15 AM,51.8,48.2,88,30.14,9.0,Calm,Calm,-,N/A,,Overcast,0,2012-12-01 10:15:00
4:35 AM,51.8,48.2,88,30.14,7.0,Calm,Calm,-,N/A,,Overcast,0,2012-12-01 10:35:00
4:55 AM,51.8,48.2,88,30.13,8.0,Calm,Calm,-,N/A,,Overcast,0,2012-12-01 10:55:00
5:15 AM,51.8,50.0,94,30.14,9.0,Calm,Calm,-,N/A,,Overcast,0,2012-12-01 11:15:00
5:35 AM,51.8,50.0,94,30.14,10.0,Calm,Calm,-,N/A,,Overcast,0,2012-12-01 11:35:00
5:55 AM,51.8,50.0,94,30.14,9.0,Calm,Calm,-,N/A,,Overcast,0,2012-12-01 11:55:00
6:15 AM,51.8,48.2,88,30.14,9.0,Calm,Calm,-,N/A,,Mostly Cloudy,0,2012-12-01 12:15:00
6:35 AM,51.8,48.2,88,30.14,8.0,Calm,Calm,-,N/A,,Mostly Cloudy,0,2012-12-01 12:35:00
6:55 AM,50.0,48.2,94,30.14,8.0,Calm,Calm,-,N/A,,Mostly Cloudy,0,2012-12-01 12:55:00
7:15 AM,50.0,48.2,94,30.14,8.0,Calm,Calm,-,N/A,,Mostly Cloudy,0,2012-12-01 13:15:00
7:35 AM,51.8,48.2,88,30.14,8.0,Calm,Calm,-,N/A,,Mostly Cloudy,0,2012-12-01 13:35:00
7:55 AM,51.8,50.0,94,30.14,7.0,Calm,Calm,-,N/A,,Overcast,0,2012-12-01 13:55:00
8:15 AM,53.6,51.8,94,30.15,8.0,Calm,Calm,-,N/A,,Overcast,0,2012-12-01 14:15:00
8:35 AM,55.4,51.8,88,30.15,9.0,Calm,Calm,-,N/A,,Overcast,0,2012-12-01 14:35:00
8:55 AM,60.8,53.6,77,30.14,9.0,Calm,Calm,-,N/A,,Overcast,0,2012-12-01 14:55:00
9:15 AM,62.6,55.4,77,30.14,10.0,Calm,Calm,-,N/A,,Overcast,0,2012-12-01 15:15:00
9:35 AM,62.6,55.4,77,30.14,10.0,South,6.9,-,N/A,,Overcast,180,2012-12-01 15:35:00
9:55 AM,62.6,55.4,77,30.14,10.0,Calm,Calm,-,N/A,,Overcast,0,2012-12-01 15:55:00
10:15 AM,64.4,55.4,73,30.13,10.0,Calm,Calm,-,N/A,,Overcast,0,2012-12-01 16:15:00
10:35 AM,64.4,55.4,73,30.13,10.0,SSW,6.9,-,N/A,,Overcast,200,2012-12-01 16:35:00
10:55 AM,64.4,55.4,73,30.13,10.0,South,5.8,-,N/A,,Overcast,170,2012-12-01 16:55:00
11:15 AM,66.2,55.4,68,30.12,10.0,South,11.5,17.3,N/A,,Overcast,190,2012-12-01 17:15:00
11:35 AM,66.2,55.4,68,30.11,10.0,SSE,10.4,-,N/A,,Overcast,160,2012-12-01 17:35:00
11:55 AM,66.2,57.2,73,30.09,10.0,South,9.2,-,N/A,,Overcast,190,2012-12-01 17:55:00
12:15 PM,68.0,57.2,68,30.08,10.0,South,9.2,16.1,N/A,,Mostly Cloudy,180,2012-12-01 18:15:00
12:35 PM,69.8,57.2,64,30.07,10.0,Calm,Calm,-,N/A,,Overcast,0,2012-12-01 18:35:00
12:55 PM,69.8,57.2,64,30.05,10.0,South,8.1,16.1,N/A,,Overcast,180,2012-12-01 18:55:00
1:15 PM,69.8,59.0,68,30.05,10.0,South,10.4,17.3,N/A,,Overcast,170,2012-12-01 19:15:00
1:35 PM,71.6,59.0,64,30.04,10.0,South,10.4,17.3,N/A,,Overcast,180,2012-12-01 19:35:00
1:55 PM,71.6,59.0,64,30.03,10.0,South,10.4,20.7,N/A,,Mostly Cloudy,170,2012-12-01 19:55:00
2:15 PM,71.6,59.0,64,30.03,10.0,South,8.1,23.0,N/A,,Mostly Cloudy,170,2012-12-01 20:15:00
2:35 PM,71.6,59.0,64,30.02,10.0,South,3.5,20.7,N/A,,Overcast,170,2012-12-01 20:35:00
2:55 PM,71.6,59.0,64,30.02,10.0,South,5.8,16.1,N/A,,Overcast,180,2012-12-01 20:55:00
3:15 PM,71.6,57.2,60,30.01,10.0,South,10.4,16.1,N/A,,Mostly Cloudy,180,2012-12-01 21:15:00
3:35 PM,71.6,59.0,64,30.01,10.0,South,5.8,-,N/A,,Mostly Cloudy,170,2012-12-01 21:35:00
3:55 PM,71.6,59.0,64,30.01,10.0,SSE,6.9,-,N/A,,Mostly Cloudy,160,2012-12-01 21:55:00
4:15 PM,69.8,59.0,68,30.01,10.0,SSE,8.1,-,N/A,,Mostly Cloudy,160,2012-12-01 22:15:00
4:35 PM,69.8,59.0,68,30.01,10.0,SSE,5.8,-,N/A,,Mostly Cloudy,150,2012-12-01 22:35:00
4:55 PM,69.8,59.0,68,30.01,10.0,SSE,4.6,-,N/A,,Partly Cloudy,160,2012-12-01 22:55:00
5:15 PM,68.0,59.0,73,30.01,10.0,Calm,Calm,-,N/A,,Scattered Clouds,0,2012-12-01 23:15:00
5:35 PM,69.8,59.0,68,30.02,10.0,Calm,Calm,-,N/A,,Mostly Cloudy,0,2012-12-01 23:35:00
5:55 PM,68.0,57.2,68,30.02,10.0,SE,9.2,-,N/A,,Mostly Cloudy,140,2012-12-01 23:55:00
6:15 PM,66.2,57.2,73,30.02,10.0,SSE,5.8,-,N/A,,Mostly Cloudy,160,2012-12-02 00:15:00
6:35 PM,66.2,57.2,73,30.03,10.0,SSE,5.8,-,N/A,,Mostly Cloudy,150,2012-12-02 00:35:00
6:55 PM,66.2,57.2,73,30.02,10.0,SE,5.8,-,N/A,,Mostly Cloudy,130,2012-12-02 00:55:00
7:15 PM,66.2,57.2,73,30.02,10.0,SE,6.9,-,N/A,,Mostly Cloudy,140,2012-12-02 01:15:00
7:35 PM,64.4,57.2,77,30.03,10.0,SSE,5.8,-,N/A,,Scattered Clouds,150,2012-12-02 01:35:00
7:55 PM,66.2,57.2,73,30.02,10.0,SE,8.1,-,N/A,,Scattered Clouds,140,2012-12-02 01:55:00
8:15 PM,66.2,57.2,73,30.03,10.0,Calm,Calm,-,N/A,,Mostly Cloudy,0,2012-12-02 02:15:00
8:35 PM,66.2,57.2,73,30.04,10.0,SE,6.9,-,N/A,,Overcast,140,2012-12-02 02:35:00
8:55 PM,66.2,57.2,73,30.04,10.0,Calm,Calm,-,N/A,,Overcast,0,2012-12-02 02:55:00
9:15 PM,66.2,57.2,73,30.05,10.0,Calm,Calm,-,N/A,,Overcast,0,2012-12-02 03:15:00
9:35 PM,64.4,57.2,77,30.06,10.0,SE,8.1,-,N/A,,Mostly Cloudy,140,2012-12-02 03:35:00
9:55 PM,64.4,57.2,77,30.06,10.0,Calm,Calm,-,N/A,,Overcast,0,2012-12-02 03:55:00
10:15 PM,64.4,57.2,77,30.06,10.0,SSE,4.6,-,N/A,,Overcast,150,2012-12-02 04:15:00
10:35 PM,64.4,57.2,77,30.06,10.0,Calm,Calm,-,N/A,,Overcast,0,2012-12-02 04:35:00
10:55 PM,64.4,57.2,77,30.07,10.0,Calm,Calm,-,N/A,,Mostly Cloudy,0,2012-12-02 04:55:00
11:35 PM,64.4,57.2,77,30.07,10.0,Calm,Calm,-,N/A,,Overcast,0,2012-12-02 05:35:00